Time;durP1;ratioP1;P1;durP2;ratioP2;P2;SDS_P1;SDS_P2;PMS_P1;PMS_P2;Temp;Humidity;BMP_temperature;BMP_pressure;BME280_temperature;BME280_humidity;BME280_pressure;Samples;Min_cycle;Max_cycle;Signal;HPM_P1;HPM_P2
2022/08/10 00:01:21;;;;;;;27.53;26.03;;;17.80;90.50;;;;;;5033542;28;20600;-75
2022/08/10 00:03:47;;;;;;;26.50;25.05;;;17.80;90.90;;;;;;5032564;28;20219;-75
2022/08/10 00:06:13;;;;;;;27.23;25.92;;;17.70;91.00;;;;;;5033992;28;20179;-75
2022/08/10 00:08:39;;;;;;;29.50;28.05;;;17.70;91.20;;;;;;5033060;28;20591;-75
2022/08/10 00:11:05;;;;;;;32.60;31.00;;;17.70;91.50;;;;;;5034863;28;20179;-76
2022/08/10 00:13:30;;;;;;;36.15;34.15;;;17.60;91.70;;;;;;5032096;28;20447;-73
2022/08/10 00:15:56;;;;;;;33.55;31.88;;;17.60;92.10;;;;;;5032098;28;20202;-74
2022/08/10 00:18:23;;;;;;;32.10;30.43;;;17.60;92.00;;;;;;5031630;28;20719;-74
2022/08/10 00:20:49;;;;;;;38.63;36.73;;;17.50;92.40;;;;;;5033580;28;20174;-74
2022/08/10 00:23:15;;;;;;;33.37;31.57;;;17.40;92.90;;;;;;5032237;28;20207;-74
2022/08/10 00:25:40;;;;;;;33.83;32.20;;;17.30;93.20;;;;;;5045480;28;20250;-73
2022/08/10 00:28:06;;;;;;;28.92;27.45;;;17.20;93.90;;;;;;5040106;28;20201;-73
2022/08/10 00:30:32;;;;;;;20.08;18.80;;;17.10;94.50;;;;;;5033443;28;20190;-74
2022/08/10 00:32:58;;;;;;;12.90;12.00;;;17.10;95.30;;;;;;5032642;28;20218;-74
2022/08/10 00:35:24;;;;;;;11.90;11.00;;;17.10;96.10;;;;;;5033600;28;20187;-73
2022/08/10 00:37:50;;;;;;;8.40;7.90;;;17.10;96.60;;;;;;5032384;28;20179;-73
2022/08/10 00:40:15;;;;;;;7.93;7.50;;;17.20;97.40;;;;;;5032870;28;20175;-73
2022/08/10 00:42:41;;;;;;;8.83;7.37;;;17.20;97.60;;;;;;5032332;28;20561;-73
2022/08/10 00:45:07;;;;;;;7.40;7.00;;;17.20;98.10;;;;;;5032254;28;20199;-73
2022/08/10 00:47:33;;;;;;;7.00;6.50;;;17.20;98.20;;;;;;5032059;28;20543;-74
2022/08/10 00:49:59;;;;;;;7.30;6.90;;;17.20;98.80;;;;;;5032996;28;20285;-74
2022/08/10 00:52:26;;;;;;;7.13;6.83;;;17.10;99.50;;;;;;5032655;28;20203;-74
2022/08/10 00:54:52;;;;;;;8.30;7.80;;;17.10;99.90;;;;;;5031307;28;20209;-74
2022/08/10 00:57:19;;;;;;;13.80;13.10;;;17.10;99.90;;;;;;5037555;28;20183;-73
2022/08/10 00:59:46;;;;;;;14.47;13.73;;;17.10;99.90;;;;;;5044347;28;20179;-74
2022/08/10 01:02:11;;;;;;;28.27;26.73;;;17.10;99.90;;;;;;5038327;28;20207;-74
2022/08/10 01:04:37;;;;;;;29.50;28.10;;;17.00;99.90;;;;;;5032497;28;20730;-74
2022/08/10 01:07:06;;;;;;;27.03;25.63;;;17.00;99.90;;;;;;5030172;28;20537;-74
2022/08/10 01:09:53;;;;;;;24.77;23.47;;;17.00;99.90;;;;;;5032005;28;20233;-74
2022/08/10 01:12:51;;;;;;;33.87;32.27;;;16.90;99.90;;;;;;5030811;28;20257;-74
2022/08/10 01:15:27;;;;;;;35.17;33.47;;;16.80;99.90;;;;;;5032055;28;20195;-74
2022/08/10 01:18:01;;;;;;;32.93;31.33;;;16.80;99.90;;;;;;5031528;28;20183;-73
2022/08/10 01:20:50;;;;;;;31.37;29.87;;;16.70;99.90;;;;;;5030880;28;20202;-73
2022/08/10 01:23:51;;;;;;;17.43;16.63;;;16.60;99.90;;;;;;5030661;28;20211;-73
2022/08/10 01:26:55;;;;;;;23.13;21.87;;;16.50;99.90;;;;;;5032511;28;20572;-74
2022/08/10 01:29:49;;;;;;;22.37;21.13;;;16.50;99.90;;;;;;5030710;28;20675;-73
2022/08/10 01:32:25;;;;;;;21.27;20.20;;;16.40;99.90;;;;;;5030820;28;20275;-74
2022/08/10 01:35:15;;;;;;;14.73;14.03;;;16.40;99.90;;;;;;5054523;23;20229;-74
2022/08/10 01:38:01;;;;;;;20.93;19.77;;;16.60;99.90;;;;;;5049454;28;20667;-74
2022/08/10 01:40:29;;;;;;;17.70;16.83;;;16.60;99.90;;;;;;5052014;28;20197;-74
2022/08/10 01:42:57;;;;;;;16.30;15.30;;;16.50;99.90;;;;;;5050730;28;20555;-74
2022/08/10 01:45:25;;;;;;;15.23;14.40;;;16.50;99.90;;;;;;5051057;28;20206;-75
2022/08/10 01:50:48;;;;;;;14.20;13.53;;;16.60;99.90;;;;;;5052817;28;20253;-74
2022/08/10 01:53:33;;;;;;;12.40;11.67;;;16.50;99.90;;;;;;5053725;28;20213;-74
2022/08/10 01:56:00;;;;;;;10.93;10.23;;;16.50;99.90;;;;;;5052579;28;20181;-75
2022/08/10 01:58:28;;;;;;;10.10;9.53;;;16.40;99.90;;;;;;5050730;28;20189;-75
2022/08/10 02:00:56;;;;;;;9.27;8.57;;;16.30;99.90;;;;;;5051729;28;20186;-76
2022/08/10 02:03:24;;;;;;;15.47;14.67;;;16.30;99.90;;;;;;5051459;28;20182;-75
2022/08/10 02:05:54;;;;;;;14.47;13.67;;;16.20;99.90;;;;;;5052228;28;20658;-74
2022/08/10 02:08:24;;;;;;;25.87;24.33;;;16.10;99.90;;;;;;5051167;28;20186;-74
2022/08/10 02:10:52;;;;;;;26.37;25.03;;;16.10;99.90;;;;;;5051476;28;20178;-74
2022/08/10 02:13:19;;;;;;;23.07;21.90;;;16.00;99.90;;;;;;5051266;28;20221;-76
2022/08/10 02:15:48;;;;;;;23.23;22.03;;;16.00;99.90;;;;;;5051469;28;20174;-74
2022/08/10 02:18:15;;;;;;;28.10;26.73;;;16.00;99.90;;;;;;5049941;28;20240;-74
2022/08/10 02:20:46;;;;;;;25.70;24.37;;;16.00;99.90;;;;;;5049718;28;20185;-74
2022/08/10 02:23:24;;;;;;;35.50;33.70;;;15.90;99.90;;;;;;5050197;28;20213;-74
2022/08/10 02:25:53;;;;;;;28.70;27.23;;;15.90;99.90;;;;;;5051255;28;20674;-74
2022/08/10 02:28:21;;;;;;;40.83;38.73;;;15.90;99.90;;;;;;5050749;28;20182;-75
2022/08/10 02:30:50;;;;;;;46.07;43.63;;;15.90;99.90;;;;;;5051091;28;20185;-76
2022/08/10 02:33:18;;;;;;;28.37;26.60;;;15.90;99.90;;;;;;5051478;28;20209;-74
2022/08/10 02:35:47;;;;;;;49.30;46.73;;;15.80;99.90;;;;;;5070076;28;20189;-77
2022/08/10 02:38:17;;;;;;;63.77;60.73;;;15.70;99.90;;;;;;5070091;28;20174;-73
2022/08/10 02:40:51;;;;;;;57.63;54.63;;;15.60;99.90;;;;;;5071056;28;20547;-75
2022/08/10 02:43:28;;;;;;;57.60;54.90;;;15.60;99.90;;;;;;5071000;28;20264;-75
2022/08/10 02:46:15;;;;;;;50.70;48.20;;;15.50;99.90;;;;;;5070365;28;20185;-74
2022/08/10 02:48:50;;;;;;;34.53;32.70;;;15.50;99.90;;;;;;5070006;28;20693;-75
2022/08/10 02:51:21;;;;;;;88.70;84.17;;;15.40;99.90;;;;;;5071107;28;20192;-74
2022/08/10 02:53:52;;;;;;;97.83;92.97;;;15.50;99.90;;;;;;5070630;28;20236;-75
2022/08/10 02:56:20;;;;;;;88.73;84.33;;;15.50;99.90;;;;;;5073466;28;20177;-75
2022/08/10 02:59:04;;;;;;;87.83;83.43;;;15.50;99.90;;;;;;5070045;28;20184;-75
2022/08/10 03:01:46;;;;;;;68.90;65.37;;;15.40;99.90;;;;;;5069787;28;20239;-75
2022/08/10 03:04:17;;;;;;;68.17;64.80;;;15.30;99.90;;;;;;5069587;28;20221;-75
2022/08/10 03:06:59;;;;;;;70.47;67.00;;;15.30;99.90;;;;;;5070278;28;20207;-75
2022/08/10 03:09:26;;;;;;;69.73;66.23;;;15.20;99.90;;;;;;5069258;28;20185;-75
2022/08/10 03:11:53;;;;;;;100.00;94.77;;;15.10;99.90;;;;;;5070505;28;20196;-75
2022/08/10 03:14:21;;;;;;;211.50;200.40;;;15.10;99.90;;;;;;5070048;28;20209;-75
2022/08/10 03:16:49;;;;;;;172.90;163.73;;;15.00;99.90;;;;;;5064976;28;20288;-74
2022/08/10 03:19:15;;;;;;;201.23;189.97;;;15.00;99.90;;;;;;5071566;28;20242;-75
2022/08/10 03:21:42;;;;;;;263.27;248.50;;;15.10;99.90;;;;;;5070621;28;20238;-75
2022/08/10 03:24:09;;;;;;;250.67;237.23;;;15.00;99.90;;;;;;5069179;28;20701;-75
2022/08/10 03:26:36;;;;;;;215.17;202.80;;;15.00;99.90;;;;;;5070828;28;20277;-74
2022/08/10 03:29:03;;;;;;;243.77;230.37;;;14.90;99.90;;;;;;5068657;28;20174;-74
2022/08/10 03:31:31;;;;;;;163.07;154.43;;;14.80;99.90;;;;;;5090378;28;20201;-74
2022/08/10 03:33:59;;;;;;;198.97;188.07;;;14.80;99.90;;;;;;5072806;28;20214;-75
2022/08/10 03:36:25;;;;;;;164.40;155.90;;;14.70;99.90;;;;;;5074254;28;20550;-74
2022/08/10 03:38:52;;;;;;;121.53;114.70;;;14.70;99.90;;;;;;5073830;28;20182;-75
2022/08/10 03:41:25;;;;;;;175.70;166.37;;;14.70;99.90;;;;;;5072817;28;20184;-73
2022/08/10 03:43:53;;;;;;;161.27;152.67;;;14.70;99.90;;;;;;5070713;28;20313;-74
2022/08/10 03:46:22;;;;;;;111.93;105.80;;;14.60;99.90;;;;;;5071333;28;20264;-73
2022/08/10 03:48:51;;;;;;;74.33;70.27;;;14.60;99.90;;;;;;5070117;28;20182;-74
2022/08/10 03:51:18;;;;;;;58.10;54.93;;;14.60;99.90;;;;;;5072591;28;20177;-73
2022/08/10 03:53:45;;;;;;;49.77;47.07;;;14.50;99.90;;;;;;5069909;28;20202;-73
2022/08/10 03:56:11;;;;;;;49.53;46.70;;;14.60;99.90;;;;;;5074098;28;20182;-73
2022/08/10 03:58:37;;;;;;;52.40;49.40;;;14.50;99.90;;;;;;5068576;28;20185;-74
2022/08/10 04:01:04;;;;;;;46.50;43.90;;;14.50;99.90;;;;;;5061837;28;20193;-73
2022/08/10 04:03:30;;;;;;;44.07;41.77;;;14.50;99.90;;;;;;5052772;28;20232;-74
2022/08/10 04:05:56;;;;;;;35.40;33.60;;;14.40;99.90;;;;;;5073321;28;20185;-73
2022/08/10 04:08:23;;;;;;;25.60;24.20;;;14.40;99.90;;;;;;5071743;28;20201;-73
2022/08/10 04:10:48;;;;;;;19.20;18.23;;;14.40;99.90;;;;;;5072578;28;20173;-72
2022/08/10 04:13:14;;;;;;;18.23;16.90;;;14.40;99.90;;;;;;5072793;28;20173;-72
2022/08/10 04:15:40;;;;;;;32.43;30.60;;;14.40;99.90;;;;;;5073633;28;20695;-72
2022/08/10 04:18:06;;;;;;;20.80;19.50;;;14.40;99.90;;;;;;5072607;28;20347;-71
2022/08/10 04:20:48;;;;;;;23.10;21.63;;;14.40;99.90;;;;;;5072958;28;20182;-72
2022/08/10 04:23:21;;;;;;;17.60;16.50;;;14.30;99.90;;;;;;5056025;28;20282;-72
2022/08/10 04:25:49;;;;;;;18.00;16.77;;;14.30;99.90;;;;;;5073416;28;20181;-72
2022/08/10 04:28:15;;;;;;;19.73;18.73;;;14.30;99.90;;;;;;5071786;28;20173;-72
2022/08/10 04:30:43;;;;;;;19.23;18.23;;;14.40;99.90;;;;;;5073446;28;20180;-72
2022/08/10 04:33:12;;;;;;;19.83;18.63;;;14.40;99.90;;;;;;5073573;28;20245;-72
2022/08/10 04:35:38;;;;;;;25.77;24.27;;;14.40;99.90;;;;;;5073092;28;20213;-72
2022/08/10 04:38:05;;;;;;;20.73;19.60;;;14.40;99.90;;;;;;5072004;28;20188;-72
2022/08/10 04:40:31;;;;;;;21.13;20.10;;;14.40;99.90;;;;;;5073330;28;20634;-73
2022/08/10 04:43:02;;;;;;;19.80;18.47;;;14.50;99.90;;;;;;5071111;28;20296;-72
2022/08/10 04:45:28;;;;;;;20.73;19.67;;;14.50;99.90;;;;;;5072450;28;20197;-72
2022/08/10 04:47:54;;;;;;;24.50;22.83;;;14.60;99.90;;;;;;5071351;28;20231;-73
2022/08/10 04:50:20;;;;;;;25.17;23.83;;;14.70;99.90;;;;;;5071689;28;20174;-73
2022/08/10 04:52:45;;;;;;;29.57;27.93;;;14.70;99.90;;;;;;5072663;28;20182;-72
2022/08/10 04:55:11;;;;;;;68.87;64.93;;;14.90;99.90;;;;;;5072859;28;20204;-72
2022/08/10 04:57:37;;;;;;;69.57;65.90;;;15.00;99.90;;;;;;5071199;28;20189;-73
2022/08/10 05:00:04;;;;;;;161.40;152.87;;;15.00;99.90;;;;;;5071698;28;20189;-73
2022/08/10 05:02:30;;;;;;;391.53;370.07;;;15.20;99.90;;;;;;5071667;28;20574;-72
2022/08/10 05:04:56;;;;;;;382.83;360.60;;;15.40;99.90;;;;;;5071769;28;20202;-73
2022/08/10 05:07:22;;;;;;;232.33;219.53;;;15.50;99.90;;;;;;5070700;28;20198;-73
2022/08/10 05:09:49;;;;;;;59.03;55.83;;;15.60;99.90;;;;;;5073023;28;20174;-74
2022/08/10 05:12:15;;;;;;;21.67;20.33;;;15.80;99.90;;;;;;5071025;28;20653;-73
2022/08/10 05:14:41;;;;;;;61.13;58.07;;;16.10;99.90;;;;;;5072470;28;20229;-73
2022/08/10 05:17:07;;;;;;;28.17;26.27;;;16.40;99.90;;;;;;5070500;28;20660;-72
2022/08/10 05:19:32;;;;;;;36.60;34.40;;;16.70;99.90;;;;;;5071389;28;20184;-72
2022/08/10 05:21:58;;;;;;;64.72;61.22;;;17.30;99.90;;;;;;5071064;28;20749;-72
2022/08/10 05:24:24;;;;;;;92.40;87.60;;;17.80;99.90;;;;;;5072122;28;20583;-73
2022/08/10 05:26:50;;;;;;;13.05;12.20;;;18.50;99.90;;;;;;5070947;28;20554;-74
2022/08/10 05:29:15;;;;;;;6.15;5.85;;;19.00;99.90;;;;;;5070809;28;20250;-74
2022/08/10 05:31:42;;;;;;;10.60;9.70;;;19.60;99.90;;;;;;5072433;28;20751;-74
2022/08/10 05:34:08;;;;;;;11.45;10.75;;;19.90;99.90;;;;;;5071071;28;20213;-74
2022/08/10 05:36:35;;;;;;;13.10;12.23;;;20.40;99.90;;;;;;5070551;28;20203;-74
2022/08/10 05:39:01;;;;;;;23.33;22.08;;;20.70;99.90;;;;;;5068452;28;20563;-73
2022/08/10 05:41:27;;;;;;;29.25;27.50;;;20.80;99.90;;;;;;5070700;28;20180;-72
2022/08/10 05:43:55;;;;;;;29.02;27.48;;;20.90;99.90;;;;;;5070996;28;20259;-74
2022/08/10 05:46:20;;;;;;;26.80;25.30;;;21.00;99.90;;;;;;5064395;28;20182;-74
2022/08/10 05:48:48;;;;;;;24.90;23.48;;;21.10;99.90;;;;;;5066210;28;20219;-74
2022/08/10 05:51:15;;;;;;;13.60;12.90;;;21.10;99.90;;;;;;5050561;28;20667;-74
2022/08/10 05:53:41;;;;;;;7.65;7.15;;;21.40;99.90;;;;;;5068293;28;20224;-74
2022/08/10 05:56:08;;;;;;;9.15;8.32;;;21.60;99.90;;;;;;5071794;28;20235;-74
2022/08/10 05:58:35;;;;;;;14.70;13.80;;;22.00;99.90;;;;;;5071344;28;20186;-74
2022/08/10 06:01:05;;;;;;;12.68;11.52;;;22.20;99.90;;;;;;5072290;28;20272;-74
2022/08/10 06:03:39;;;;;;;8.55;8.15;;;22.50;99.90;;;;;;5072241;28;20209;-74
2022/08/10 06:06:09;;;;;;;11.80;10.63;;;22.80;99.90;;;;;;5052246;28;20177;-73
2022/08/10 06:08:36;;;;;;;11.80;10.93;;;23.20;99.90;;;;;;5049086;28;20174;-72
2022/08/10 06:11:04;;;;;;;8.13;7.38;;;23.60;98.90;;;;;;5050360;28;20205;-72
2022/08/10 06:16:20;;;;;;;7.78;7.35;;;24.30;97.00;;;;;;5050849;28;20201;-72
2022/08/10 06:18:47;;;;;;;8.88;8.27;;;24.50;95.70;;;;;;5049814;28;20569;-72
2022/08/10 06:21:15;;;;;;;10.00;9.35;;;24.80;94.80;;;;;;5052178;28;20293;-72
2022/08/10 06:23:42;;;;;;;13.13;12.43;;;25.10;93.90;;;;;;5050005;28;20206;-73
2022/08/10 06:26:08;;;;;;;23.77;22.42;;;25.40;92.00;;;;;;5051577;28;20178;-74
2022/08/10 06:28:37;;;;;;;18.70;17.77;;;25.80;91.20;;;;;;5050494;28;20181;-74
2022/08/10 06:31:06;;;;;;;20.98;19.90;;;26.20;88.90;;;;;;5050451;28;20273;-74
2022/08/10 06:33:34;;;;;;;19.77;18.77;;;26.70;85.80;;;;;;5050970;28;20184;-74
2022/08/10 06:36:01;;;;;;;14.40;13.23;;;27.00;83.80;;;;;;5051123;28;20190;-73
2022/08/10 06:38:31;;;;;;;10.20;9.70;;;27.10;81.60;;;;;;5048167;28;20620;-74
2022/08/10 06:41:01;;;;;;;8.45;8.02;;;27.30;81.10;;;;;;5057926;28;20258;-74
2022/08/10 06:43:31;;;;;;;6.80;6.43;;;27.50;77.80;;;;;;5070973;28;20209;-74
2022/08/10 06:46:05;;;;;;;6.07;5.68;;;27.70;77.00;;;;;;5068906;28;20695;-74
2022/08/10 06:48:46;;;;;;;9.25;8.80;;;27.90;75.20;;;;;;5053265;28;20189;-74
2022/08/10 06:51:16;;;;;;;13.73;13.02;;;28.20;71.60;;;;;;5071129;28;20602;-74
2022/08/10 06:53:49;;;;;;;19.67;18.48;;;28.30;70.70;;;;;;5068372;28;20727;-74
2022/08/10 06:56:18;;;;;;;17.98;17.15;;;28.00;69.20;;;;;;5070308;28;20254;-74
2022/08/10 06:58:53;;;;;;;14.43;13.60;;;27.60;69.70;;;;;;5068449;28;20677;-73
2022/08/10 07:01:23;;;;;;;15.73;14.95;;;27.80;70.10;;;;;;5069459;28;20181;-74
2022/08/10 07:04:07;;;;;;;16.13;15.32;;;27.80;70.10;;;;;;5069875;28;20213;-74
2022/08/10 07:06:34;;;;;;;15.00;14.18;;;28.10;69.50;;;;;;5073016;28;20185;-73
2022/08/10 07:09:02;;;;;;;21.65;20.25;;;28.50;69.50;;;;;;5074295;28;20178;-73
2022/08/10 07:11:30;;;;;;;13.65;12.85;;;28.90;65.60;;;;;;5075116;28;20638;-74
2022/08/10 07:13:58;;;;;;;9.95;8.23;;;29.00;65.60;;;;;;5075575;28;20197;-74
2022/08/10 07:16:27;;;;;;;7.55;6.63;;;29.30;64.00;;;;;;5073766;28;20192;-75
2022/08/10 07:18:55;;;;;;;9.13;8.63;;;29.40;64.50;;;;;;5072845;28;20566;-74
2022/08/10 07:21:23;;;;;;;8.70;8.07;;;29.50;62.70;;;;;;5073428;28;20193;-74
2022/08/10 07:23:50;;;;;;;7.97;7.47;;;29.50;62.80;;;;;;5073083;28;20682;-73
2022/08/10 07:26:18;;;;;;;7.38;6.72;;;29.10;62.10;;;;;;5074345;28;20269;-74
2022/08/10 07:28:45;;;;;;;8.52;7.93;;;28.80;61.70;;;;;;5072258;28;20180;-74
2022/08/10 07:31:14;;;;;;;12.32;11.68;;;28.60;61.60;;;;;;5074664;28;20239;-73
2022/08/10 07:33:42;;;;;;;11.68;10.85;;;28.40;62.20;;;;;;5075549;28;20202;-74
2022/08/10 07:36:10;;;;;;;13.73;12.88;;;28.40;61.20;;;;;;5092270;22;20229;-74
2022/08/10 07:38:37;;;;;;;14.10;13.43;;;28.20;62.40;;;;;;5073107;28;20188;-74
2022/08/10 07:41:06;;;;;;;13.98;13.07;;;28.10;62.70;;;;;;5074080;28;20223;-74
2022/08/10 07:43:36;;;;;;;15.55;14.68;;;28.30;61.30;;;;;;5106717;28;20300;-74
2022/08/10 07:46:10;;;;;;;17.40;16.40;;;27.90;62.30;;;;;;5074256;28;20190;-74
2022/08/10 07:48:44;;;;;;;20.00;18.90;;;27.50;62.40;;;;;;5072003;28;20650;-74
2022/08/10 07:51:11;;;;;;;15.75;14.73;;;27.20;63.00;;;;;;5073858;28;20174;-74
2022/08/10 07:53:43;;;;;;;13.88;12.82;;;27.20;63.90;;;;;;5072528;28;20264;-74
2022/08/10 07:56:11;;;;;;;11.38;10.80;;;27.10;63.50;;;;;;5074145;28;20201;-74
2022/08/10 07:58:48;;;;;;;8.23;7.63;;;27.10;63.60;;;;;;5073334;28;20264;-74
2022/08/10 08:01:15;;;;;;;9.30;8.85;;;27.00;64.70;;;;;;5072832;28;20273;-74
2022/08/10 08:03:43;;;;;;;8.13;7.72;;;27.00;63.80;;;;;;5074105;28;20288;-75
2022/08/10 08:06:12;;;;;;;14.70;9.02;;;27.10;64.40;;;;;;5076535;28;20209;-75
2022/08/10 08:08:41;;;;;;;10.10;9.13;;;27.00;64.30;;;;;;5078686;28;20224;-73
2022/08/10 08:11:07;;;;;;;13.02;12.32;;;27.20;63.50;;;;;;5075261;28;20669;-72
2022/08/10 08:13:36;;;;;;;16.55;15.55;;;27.40;62.60;;;;;;5074234;28;20265;-74
2022/08/10 08:16:05;;;;;;;21.13;19.75;;;27.70;62.30;;;;;;5073902;28;20208;-74
2022/08/10 08:18:35;;;;;;;17.50;16.60;;;27.90;61.00;;;;;;5073146;28;20181;-75
2022/08/10 08:21:02;;;;;;;18.05;16.60;;;28.00;61.20;;;;;;5071703;28;20715;-73
2022/08/10 08:23:28;;;;;;;12.75;12.13;;;28.20;61.50;;;;;;5073497;28;20790;-73
2022/08/10 08:25:55;;;;;;;11.88;11.18;;;28.10;61.20;;;;;;5072435;28;20200;-74
2022/08/10 08:28:23;;;;;;;14.07;13.38;;;28.00;60.00;;;;;;5072796;28;20718;-73
2022/08/10 08:30:50;;;;;;;11.57;10.98;;;27.70;60.10;;;;;;5073602;28;20205;-73
2022/08/10 08:33:17;;;;;;;10.88;9.98;;;28.30;60.00;;;;;;5072318;28;20189;-74
2022/08/10 08:35:44;;;;;;;7.97;7.63;;;28.60;58.80;;;;;;5073167;28;20233;-73
2022/08/10 08:38:11;;;;;;;9.02;8.52;;;28.40;59.00;;;;;;5072695;28;20563;-73
2022/08/10 08:40:43;;;;;;;6.60;6.30;;;28.40;59.30;;;;;;5072288;28;20684;-75
2022/08/10 08:43:39;;;;;;;7.57;7.20;;;28.30;58.50;;;;;;5073227;28;20213;-73
2022/08/10 08:46:33;;;;;;;6.63;6.22;;;28.40;57.60;;;;;;5073364;28;20568;-75
2022/08/10 08:49:11;;;;;;;5.90;5.50;;;28.30;57.10;;;;;;5071228;28;20182;-74
2022/08/10 08:51:52;;;;;;;6.03;5.57;;;28.20;57.20;;;;;;5071864;28;20269;-74
2022/08/10 08:54:35;;;;;;;6.55;6.25;;;28.10;56.10;;;;;;5077170;28;20182;-74
2022/08/10 08:57:27;;;;;;;5.88;5.60;;;28.10;56.30;;;;;;5083177;28;20642;-74
2022/08/10 09:00:09;;;;;;;5.35;5.15;;;28.40;55.20;;;;;;5071863;28;20563;-74
2022/08/10 09:03:14;;;;;;;5.03;4.68;;;28.50;54.30;;;;;;5071322;28;20213;-73
2022/08/10 09:06:14;;;;;;;5.03;4.43;;;28.50;54.00;;;;;;5040875;28;20209;-74
2022/08/10 09:08:55;;;;;;;5.03;4.72;;;28.50;53.30;;;;;;5071874;28;20263;-75
2022/08/10 09:11:49;;;;;;;5.22;4.93;;;28.90;52.70;;;;;;5072642;28;20181;-75
2022/08/10 09:14:38;;;;;;;6.28;5.93;;;29.10;52.20;;;;;;5072690;28;20189;-75
2022/08/10 09:17:29;;;;;;;6.68;6.40;;;29.20;51.60;;;;;;5071898;28;20182;-75
2022/08/10 09:20:06;;;;;;;9.70;9.10;;;29.40;51.30;;;;;;5072510;28;20193;-75
2022/08/10 09:22:52;;;;;;;10.25;9.55;;;29.30;50.50;;;;;;5071113;28;20240;-75
2022/08/10 09:25:35;;;;;;;9.52;9.02;;;29.10;50.50;;;;;;5072429;28;20201;-75
2022/08/10 09:28:12;;;;;;;11.27;10.77;;;29.30;50.60;;;;;;5063728;28;20247;-75
2022/08/10 09:30:59;;;;;;;12.32;11.40;;;29.50;50.30;;;;;;5053204;28;20273;-75
2022/08/10 09:33:55;;;;;;;21.52;20.55;;;29.60;51.00;;;;;;5070590;28;20284;-75
2022/08/10 09:36:49;;;;;;;7.57;7.13;;;29.00;49.90;;;;;;5071121;28;20236;-75
2022/08/10 09:39:43;;;;;;;5.85;5.65;;;29.00;50.40;;;;;;5069924;28;20298;-75
2022/08/10 09:42:24;;;;;;;5.38;5.07;;;28.70;50.70;;;;;;5070699;28;20185;-75
2022/08/10 09:44:58;;;;;;;5.50;5.10;;;28.50;51.20;;;;;;5075250;28;20708;-75
2022/08/10 09:48:03;;;;;;;6.13;5.80;;;28.80;51.30;;;;;;5090204;28;20187;-75
2022/08/10 09:50:46;;;;;;;8.60;7.97;;;29.00;50.70;;;;;;5085056;28;20238;-75
2022/08/10 09:53:19;;;;;;;5.95;5.55;;;28.80;49.60;;;;;;5091428;28;20188;-75
2022/08/10 09:55:51;;;;;;;5.70;5.18;;;28.60;50.40;;;;;;5091878;28;20212;-75
2022/08/10 09:58:44;;;;;;;6.40;4.78;;;28.70;51.20;;;;;;5090980;28;20208;-76
2022/08/10 10:01:26;;;;;;;6.53;6.22;;;29.10;51.00;;;;;;5091776;28;20243;-75
2022/08/10 10:04:23;;;;;;;9.63;8.88;;;29.30;51.10;;;;;;5091659;28;20212;-75
2022/08/10 10:06:59;;;;;;;47.90;45.50;;;29.80;51.30;;;;;;5091041;28;20181;-74
2022/08/10 10:09:51;;;;;;;111.35;105.15;;;30.60;49.40;;;;;;5091512;28;20229;-74
2022/08/10 10:12:35;;;;;;;115.25;109.57;;;30.70;47.80;;;;;;5091258;28;20268;-74
2022/08/10 10:15:36;;;;;;;151.77;144.60;;;30.50;48.20;;;;;;5091552;28;20654;-74
2022/08/10 10:18:02;;;;;;;130.15;123.85;;;30.90;46.40;;;;;;5090589;28;20259;-75
2022/08/10 10:20:46;;;;;;;122.30;116.47;;;31.10;46.10;;;;;;5091433;28;20256;-74
2022/08/10 10:23:20;;;;;;;124.53;118.28;;;30.70;45.70;;;;;;5106818;28;20211;-74
2022/08/10 10:26:05;;;;;;;114.00;108.50;;;30.70;44.80;;;;;;5090152;28;20200;-74
2022/08/10 10:28:41;;;;;;;102.72;97.70;;;30.10;45.00;;;;;;5090484;28;20230;-74
2022/08/10 10:31:35;;;;;;;126.93;120.78;;;30.50;45.50;;;;;;5107391;28;20180;-74
2022/08/10 10:34:23;;;;;;;140.48;133.23;;;31.10;44.60;;;;;;5103245;28;20194;-73
2022/08/10 10:36:51;;;;;;;126.25;120.20;;;30.20;45.30;;;;;;5090653;28;20203;-73
2022/08/10 10:39:20;;;;;;;127.90;121.88;;;29.90;47.00;;;;;;5090849;28;20177;-73
2022/08/10 10:42:33;;;;;;;114.55;109.05;;;29.80;46.30;;;;;;5091082;28;20177;-73
2022/08/10 10:45:40;;;;;;;111.85;106.55;;;30.50;45.70;;;;;;5088856;28;20212;-73
2022/08/10 10:48:18;;;;;;;103.10;97.93;;;30.20;46.30;;;;;;5070065;28;20191;-73
2022/08/10 10:50:54;;;;;;;132.23;125.63;;;31.10;45.20;;;;;;5091270;28;20645;-74
2022/08/10 10:53:44;;;;;;;126.20;120.13;;;31.60;45.20;;;;;;5090989;28;20543;-74
2022/08/10 10:56:45;;;;;;;123.18;117.35;;;31.00;45.50;;;;;;5090982;28;20196;-74
2022/08/10 10:59:18;;;;;;;152.23;145.00;;;31.20;45.90;;;;;;5090712;28;20205;-74
2022/08/10 11:02:13;;;;;;;131.90;125.22;;;31.10;44.80;;;;;;5107001;28;20753;-74
2022/08/10 11:04:45;;;;;;;144.57;137.77;;;31.10;45.00;;;;;;5107178;28;20258;-75
2022/08/10 11:07:14;;;;;;;152.43;144.85;;;31.10;44.80;;;;;;5090057;28;20613;-74
2022/08/10 11:09:47;;;;;;;144.93;138.07;;;31.10;44.80;;;;;;5091011;28;20203;-74
2022/08/10 11:12:18;;;;;;;117.25;111.60;;;31.00;43.90;;;;;;5106879;28;20196;-74
2022/08/10 11:15:01;;;;;;;134.15;127.78;;;31.10;43.90;;;;;;5091276;28;20204;-74
2022/08/10 11:17:41;;;;;;;124.95;118.95;;;30.60;44.60;;;;;;5089982;28;20181;-75
2022/08/10 11:21:04;;;;;;;125.13;119.15;;;30.40;45.80;;;;;;5090987;28;20276;-74
2022/08/10 11:23:38;;;;;;;116.03;110.45;;;30.70;46.00;;;;;;5051177;28;20352;-74
2022/08/10 11:26:12;;;;;;;144.40;137.20;;;31.10;45.20;;;;;;5068078;28;20707;-75
2022/08/10 11:28:45;;;;;;;120.00;114.28;;;31.70;44.00;;;;;;5082857;28;20185;-75
2022/08/10 11:31:32;;;;;;;118.78;112.95;;;30.60;45.10;;;;;;5090679;28;20177;-75
2022/08/10 11:34:11;;;;;;;129.25;123.00;;;30.60;45.20;;;;;;5106449;28;20589;-75
2022/08/10 11:36:48;;;;;;;131.18;124.85;;;30.40;44.70;;;;;;5106362;28;20181;-75
2022/08/10 11:39:49;;;;;;;125.28;119.32;;;31.50;44.10;;;;;;5106075;28;20722;-76
2022/08/10 11:42:31;;;;;;;120.85;114.95;;;32.50;43.40;;;;;;5051273;28;20192;-75
2022/08/10 11:45:02;;;;;;;126.07;120.05;;;32.00;43.10;;;;;;5088577;28;20209;-75
2022/08/10 11:47:37;;;;;;;111.60;106.20;;;32.20;42.30;;;;;;5080701;28;20178;-75
2022/08/10 11:50:20;;;;;;;129.77;123.53;;;32.30;42.10;;;;;;5049917;28;20209;-75
2022/08/10 11:53:16;;;;;;;114.32;108.88;;;32.30;41.90;;;;;;5057450;28;20231;-75
2022/08/10 11:55:48;;;;;;;95.63;91.05;;;32.30;42.80;;;;;;5088814;28;20255;-75
2022/08/10 12:01:06;;;;;;;89.97;85.63;;;32.60;41.50;;;;;;5073188;28;20189;-75
2022/08/10 12:03:36;;;;;;;94.35;89.88;;;32.00;41.20;;;;;;5071387;28;20747;-75
2022/08/10 12:06:04;;;;;;;88.03;83.38;;;31.90;41.90;;;;;;5073435;28;20596;-75
2022/08/10 12:08:31;;;;;;;104.47;98.93;;;32.30;41.70;;;;;;5073514;28;20173;-75
2022/08/10 12:10:58;;;;;;;90.45;86.03;;;32.80;40.90;;;;;;5081053;28;20201;-75
2022/08/10 12:14:00;;;;;;;96.32;91.47;;;32.60;40.90;;;;;;5084372;28;20201;-76
2022/08/10 12:16:30;;;;;;;84.93;80.82;;;32.90;40.50;;;;;;5069135;28;20185;-75
2022/08/10 12:19:03;;;;;;;89.53;85.38;;;33.50;39.90;;;;;;5073140;28;20191;-75
2022/08/10 12:21:49;;;;;;;98.25;93.55;;;33.60;39.80;;;;;;5072623;28;20182;-75
2022/08/10 12:24:24;;;;;;;97.57;92.95;;;33.80;39.00;;;;;;5073564;28;20213;-75
2022/08/10 12:27:00;;;;;;;85.32;81.13;;;33.90;38.40;;;;;;5073075;28;20603;-75
2022/08/10 12:29:28;;;;;;;92.07;87.60;;;33.20;39.20;;;;;;5072153;28;20197;-75
2022/08/10 12:32:05;;;;;;;86.35;81.95;;;32.10;40.10;;;;;;5073423;28;20174;-75
2022/08/10 12:34:37;;;;;;;99.78;95.03;;;32.00;40.30;;;;;;5073488;28;20208;-75
2022/08/10 12:37:25;;;;;;;87.90;83.82;;;32.80;39.60;;;;;;5071604;28;20266;-75
2022/08/10 12:40:27;;;;;;;95.60;91.13;;;33.50;38.70;;;;;;5073473;28;20178;-75
2022/08/10 12:43:17;;;;;;;86.25;82.13;;;33.50;38.30;;;;;;5072129;28;20221;-75
2022/08/10 12:46:34;;;;;;;99.05;94.13;;;33.50;38.00;;;;;;5072250;28;20204;-75
2022/08/10 12:49:30;;;;;;;79.35;75.53;;;33.50;38.20;;;;;;5070387;28;20580;-76
2022/08/10 12:52:25;;;;;;;103.22;98.07;;;34.00;38.10;;;;;;5054673;28;20197;-75
2022/08/10 12:54:55;;;;;;;92.30;87.90;;;33.90;37.60;;;;;;5069097;28;20305;-75
2022/08/10 12:57:24;;;;;;;112.65;107.22;;;34.20;36.80;;;;;;5071427;28;20201;-76
2022/08/10 12:59:55;;;;;;;115.15;109.68;;;34.10;37.30;;;;;;5071838;28;20260;-75
2022/08/10 13:02:33;;;;;;;125.72;119.88;;;34.00;36.60;;;;;;5072817;28;20182;-75
2022/08/10 13:05:03;;;;;;;108.03;102.72;;;34.10;36.90;;;;;;5072760;28;20202;-75
2022/08/10 13:07:33;;;;;;;101.05;96.38;;;33.80;37.00;;;;;;5071990;28;20290;-76
2022/08/10 13:10:05;;;;;;;71.97;68.40;;;34.40;36.20;;;;;;5071958;28;20189;-75